sensor_id;sensor_type;location;lat;lon;timestamp;pressure;altitude;pressure_sealevel;temperature;humidity
77325;BME280;66387;53.440;10.390;2023-09-07T00:00:37;101667.25;;;20.43;84.33
77325;BME280;66387;53.440;10.390;2023-09-07T00:03:02;101670.66;;;20.45;84.42
77325;BME280;66387;53.440;10.390;2023-09-07T00:05:29;101676.09;;;20.41;84.48
77325;BME280;66387;53.440;10.390;2023-09-07T00:07:54;101674.28;;;20.43;84.38
77325;BME280;66387;53.440;10.390;2023-09-07T00:10:20;101674.41;;;20.40;84.43
77325;BME280;66387;53.440;10.390;2023-09-07T00:12:46;101670.03;;;20.39;84.36
77325;BME280;66387;53.440;10.390;2023-09-07T00:15:11;101675.44;;;20.36;84.74
77325;BME280;66387;53.440;10.390;2023-09-07T00:17:36;101674.56;;;20.35;84.53
77325;BME280;66387;53.440;10.390;2023-09-07T00:20:03;101674.69;;;20.32;84.75
77325;BME280;66387;53.440;10.390;2023-09-07T00:22:39;101673.75;;;20.33;84.44
77325;BME280;66387;53.440;10.390;2023-09-07T00:25:05;101671.97;;;20.34;84.19
77325;BME280;66387;53.440;10.390;2023-09-07T00:27:35;101665.91;;;20.32;84.47
77325;BME280;66387;53.440;10.390;2023-09-07T00:30:01;101677.38;;;20.31;84.61
77325;BME280;66387;53.440;10.390;2023-09-07T00:32:26;101672.28;;;20.25;84.72
77325;BME280;66387;53.440;10.390;2023-09-07T00:34:51;101667.22;;;20.19;85.39
77325;BME280;66387;53.440;10.390;2023-09-07T00:37:16;101669.88;;;20.19;85.15
77325;BME280;66387;53.440;10.390;2023-09-07T00:39:42;101665.56;;;20.16;85.35
77325;BME280;66387;53.440;10.390;2023-09-07T00:42:07;101665.72;;;20.12;85.41
77325;BME280;66387;53.440;10.390;2023-09-07T00:44:32;101669.19;;;20.14;85.16
77325;BME280;66387;53.440;10.390;2023-09-07T00:46:58;101674.34;;;20.17;85.21
77325;BME280;66387;53.440;10.390;2023-09-07T00:49:24;101669.19;;;20.14;85.08
77325;BME280;66387;53.440;10.390;2023-09-07T00:51:50;101673.53;;;20.15;85.13
77325;BME280;66387;53.440;10.390;2023-09-07T00:54:15;101674.56;;;20.11;85.38
77325;BME280;66387;53.440;10.390;2023-09-07T00:56:41;101672.97;;;20.06;85.82
77325;BME280;66387;53.440;10.390;2023-09-07T00:59:07;101670.53;;;20.00;85.82
77325;BME280;66387;53.440;10.390;2023-09-07T01:01:32;101671.59;;;19.95;86.02
77325;BME280;66387;53.440;10.390;2023-09-07T01:03:58;101668.09;;;19.94;86.05
77325;BME280;66387;53.440;10.390;2023-09-07T01:06:29;101670.84;;;19.91;86.26
77325;BME280;66387;53.440;10.390;2023-09-07T01:08:57;101664.88;;;19.86;86.46
77325;BME280;66387;53.440;10.390;2023-09-07T01:11:25;101670.09;;;19.88;85.95
77325;BME280;66387;53.440;10.390;2023-09-07T01:13:52;101658.91;;;19.81;86.47
77325;BME280;66387;53.440;10.390;2023-09-07T01:16:19;101665.09;;;19.80;86.79
77325;BME280;66387;53.440;10.390;2023-09-07T01:18:45;101665.22;;;19.77;87.10
77325;BME280;66387;53.440;10.390;2023-09-07T01:21:11;101655.13;;;19.64;87.90
77325;BME280;66387;53.440;10.390;2023-09-07T01:23:37;101657.81;;;19.62;88.53
77325;BME280;66387;53.440;10.390;2023-09-07T01:26:05;101662.25;;;19.60;88.44
77325;BME280;66387;53.440;10.390;2023-09-07T01:28:30;101659.56;;;19.63;88.19
77325;BME280;66387;53.440;10.390;2023-09-07T01:30:56;101652.66;;;19.59;88.62
77325;BME280;66387;53.440;10.390;2023-09-07T01:33:22;101666.84;;;19.55;88.75
77325;BME280;66387;53.440;10.390;2023-09-07T01:35:48;101661.78;;;19.49;89.24
77325;BME280;66387;53.440;10.390;2023-09-07T01:38:13;101656.78;;;19.41;89.70
77325;BME280;66387;53.440;10.390;2023-09-07T01:40:38;101661.88;;;19.46;89.19
77325;BME280;66387;53.440;10.390;2023-09-07T01:43:03;101664.50;;;19.46;89.12
77325;BME280;66387;53.440;10.390;2023-09-07T01:45:29;101654.97;;;19.42;89.22
77325;BME280;66387;53.440;10.390;2023-09-07T01:47:54;101663.78;;;19.41;89.41
77325;BME280;66387;53.440;10.390;2023-09-07T01:50:19;101660.63;;;19.30;89.46
77325;BME280;66387;53.440;10.390;2023-09-07T01:52:47;101659.75;;;19.29;89.46
77325;BME280;66387;53.440;10.390;2023-09-07T01:55:14;101652.53;;;19.36;88.81
77325;BME280;66387;53.440;10.390;2023-09-07T01:57:39;101657.75;;;19.37;87.89
77325;BME280;66387;53.440;10.390;2023-09-07T02:00:05;101654.25;;;19.37;87.20
77325;BME280;66387;53.440;10.390;2023-09-07T02:02:32;101655.97;;;19.38;86.91
77325;BME280;66387;53.440;10.390;2023-09-07T02:04:58;101654.25;;;19.37;86.45
77325;BME280;66387;53.440;10.390;2023-09-07T02:07:23;101655.22;;;19.34;86.76
77325;BME280;66387;53.440;10.390;2023-09-07T02:09:48;101657.94;;;19.31;86.48
77325;BME280;66387;53.440;10.390;2023-09-07T02:12:13;101645.53;;;19.35;86.44
77325;BME280;66387;53.440;10.390;2023-09-07T02:14:39;101657.78;;;19.36;86.26
77325;BME280;66387;53.440;10.390;2023-09-07T02:17:04;101656.81;;;19.38;86.24
77325;BME280;66387;53.440;10.390;2023-09-07T02:19:29;101656.22;;;19.30;86.20
77325;BME280;66387;53.440;10.390;2023-09-07T02:21:55;101660.56;;;19.31;86.22
77325;BME280;66387;53.440;10.390;2023-09-07T02:24:20;101650.84;;;19.33;85.85
77325;BME280;66387;53.440;10.390;2023-09-07T02:26:45;101658.78;;;19.32;85.97
77325;BME280;66387;53.440;10.390;2023-09-07T02:29:12;101654.53;;;19.28;85.99
77325;BME280;66387;53.440;10.390;2023-09-07T02:31:37;101650.13;;;19.28;85.48
77325;BME280;66387;53.440;10.390;2023-09-07T02:34:02;101661.53;;;19.29;85.51
77325;BME280;66387;53.440;10.390;2023-09-07T02:36:28;101665.06;;;19.28;85.94
77325;BME280;66387;53.440;10.390;2023-09-07T02:38:53;101661.63;;;19.26;85.81
77325;BME280;66387;53.440;10.390;2023-09-07T02:41:18;101659.00;;;19.26;85.68
77325;BME280;66387;53.440;10.390;2023-09-07T02:43:44;101658.25;;;19.22;86.52
77325;BME280;66387;53.440;10.390;2023-09-07T02:46:09;101660.28;;;19.13;87.28
77325;BME280;66387;53.440;10.390;2023-09-07T02:48:34;101671.75;;;19.12;87.18
77325;BME280;66387;53.440;10.390;2023-09-07T02:50:59;101667.88;;;18.95;88.22
77325;BME280;66387;53.440;10.390;2023-09-07T02:53:25;101662.56;;;18.97;88.53
77325;BME280;66387;53.440;10.390;2023-09-07T02:55:50;101671.47;;;18.93;88.57
77325;BME280;66387;53.440;10.390;2023-09-07T02:58:16;101673.31;;;18.89;88.99
77325;BME280;66387;53.440;10.390;2023-09-07T03:00:44;101677.09;;;18.81;89.70
77325;BME280;66387;53.440;10.390;2023-09-07T03:03:11;101679.69;;;18.82;89.58
77325;BME280;66387;53.440;10.390;2023-09-07T03:05:38;101677.16;;;18.79;90.13
77325;BME280;66387;53.440;10.390;2023-09-07T03:08:04;101680.72;;;18.77;90.12
77325;BME280;66387;53.440;10.390;2023-09-07T03:10:29;101676.59;;;18.68;91.00
77325;BME280;66387;53.440;10.390;2023-09-07T03:12:54;101675.88;;;18.63;91.69
77325;BME280;66387;53.440;10.390;2023-09-07T03:15:20;101681.13;;;18.63;91.33
77325;BME280;66387;53.440;10.390;2023-09-07T03:17:45;101680.31;;;18.61;91.53
77325;BME280;66387;53.440;10.390;2023-09-07T03:20:10;101677.81;;;18.56;91.93
77325;BME280;66387;53.440;10.390;2023-09-07T03:22:41;101683.97;;;18.55;92.24
77325;BME280;66387;53.440;10.390;2023-09-07T03:25:06;101684.13;;;18.49;93.00
77325;BME280;66387;53.440;10.390;2023-09-07T03:27:31;101678.84;;;18.51;93.39
77325;BME280;66387;53.440;10.390;2023-09-07T03:29:57;101684.28;;;18.43;93.50
77325;BME280;66387;53.440;10.390;2023-09-07T03:32:22;101675.47;;;18.46;93.77
77325;BME280;66387;53.440;10.390;2023-09-07T03:34:47;101680.81;;;18.43;94.39
77325;BME280;66387;53.440;10.390;2023-09-07T03:37:12;101679.41;;;18.31;94.81
77325;BME280;66387;53.440;10.390;2023-09-07T03:39:38;101686.53;;;18.26;95.93
77325;BME280;66387;53.440;10.390;2023-09-07T03:42:03;101677.88;;;18.23;95.87
77325;BME280;66387;53.440;10.390;2023-09-07T03:44:28;101678.94;;;18.16;96.28
77325;BME280;66387;53.440;10.390;2023-09-07T03:46:54;101681.56;;;18.17;96.63
77325;BME280;66387;53.440;10.390;2023-09-07T03:49:19;101694.63;;;18.19;96.48
77325;BME280;66387;53.440;10.390;2023-09-07T03:51:44;101687.72;;;18.14;96.86
77325;BME280;66387;53.440;10.390;2023-09-07T03:54:09;101694.00;;;18.10;96.85
77325;BME280;66387;53.440;10.390;2023-09-07T03:56:35;101696.63;;;18.10;96.76
77325;BME280;66387;53.440;10.390;2023-09-07T03:59:00;101692.34;;;18.06;96.79
77325;BME280;66387;53.440;10.390;2023-09-07T04:01:25;101694.22;;;18.01;97.76
77325;BME280;66387;53.440;10.390;2023-09-07T04:03:50;101696.94;;;17.98;97.93
77325;BME280;66387;53.440;10.390;2023-09-07T04:06:16;101703.25;;;17.91;98.20
77325;BME280;66387;53.440;10.390;2023-09-07T04:08:41;101706.78;;;17.90;98.63
77325;BME280;66387;53.440;10.390;2023-09-07T04:11:06;101700.78;;;17.85;98.83
77325;BME280;66387;53.440;10.390;2023-09-07T04:13:32;101702.59;;;17.83;99.25
77325;BME280;66387;53.440;10.390;2023-09-07T04:15:57;101710.44;;;17.85;99.30
77325;BME280;66387;53.440;10.390;2023-09-07T04:18:23;101698.94;;;17.89;98.85
77325;BME280;66387;53.440;10.390;2023-09-07T04:20:48;101699.81;;;17.89;98.71
77325;BME280;66387;53.440;10.390;2023-09-07T04:23:14;101706.88;;;17.87;98.78
77325;BME280;66387;53.440;10.390;2023-09-07T04:25:39;101703.38;;;17.87;99.05
77325;BME280;66387;53.440;10.390;2023-09-07T04:28:05;101714.59;;;17.93;98.97
77325;BME280;66387;53.440;10.390;2023-09-07T04:30:31;101706.69;;;17.93;98.71
77325;BME280;66387;53.440;10.390;2023-09-07T04:32:56;101698.13;;;17.87;98.74
77325;BME280;66387;53.440;10.390;2023-09-07T04:35:28;101712.16;;;17.86;99.33
77325;BME280;66387;53.440;10.390;2023-09-07T04:37:53;101711.22;;;17.88;98.62
77325;BME280;66387;53.440;10.390;2023-09-07T04:40:18;101718.97;;;17.93;99.05
77325;BME280;66387;53.440;10.390;2023-09-07T04:42:43;101713.88;;;17.87;99.11
77325;BME280;66387;53.440;10.390;2023-09-07T04:45:09;101714.75;;;17.87;99.17
77325;BME280;66387;53.440;10.390;2023-09-07T04:47:34;101719.06;;;17.90;98.75
77325;BME280;66387;53.440;10.390;2023-09-07T04:50:02;101715.66;;;17.86;99.25
77325;BME280;66387;53.440;10.390;2023-09-07T04:52:29;101725.34;;;17.84;99.40
77325;BME280;66387;53.440;10.390;2023-09-07T04:54:54;101720.88;;;17.88;98.98
77325;BME280;66387;53.440;10.390;2023-09-07T04:57:19;101721.84;;;17.84;99.01
77325;BME280;66387;53.440;10.390;2023-09-07T04:59:44;101726.13;;;17.88;99.09
77325;BME280;66387;53.440;10.390;2023-09-07T05:02:10;101726.22;;;17.85;99.41
77325;BME280;66387;53.440;10.390;2023-09-07T05:04:36;101727.88;;;17.87;99.18
77325;BME280;66387;53.440;10.390;2023-09-07T05:07:02;101732.06;;;17.96;98.79
77325;BME280;66387;53.440;10.390;2023-09-07T05:09:27;101732.00;;;17.97;99.00
77325;BME280;66387;53.440;10.390;2023-09-07T05:11:55;101727.81;;;17.90;98.88
77325;BME280;66387;53.440;10.390;2023-09-07T05:14:20;101730.69;;;17.81;99.62
77325;BME280;66387;53.440;10.390;2023-09-07T05:16:45;101730.09;;;17.69;100.00
77325;BME280;66387;53.440;10.390;2023-09-07T05:19:11;101724.66;;;17.76;100.00
77325;BME280;66387;53.440;10.390;2023-09-07T05:21:36;101724.56;;;17.81;99.68
77325;BME280;66387;53.440;10.390;2023-09-07T05:24:01;101727.22;;;17.79;100.00
77325;BME280;66387;53.440;10.390;2023-09-07T05:26:26;101717.56;;;17.80;100.00
77325;BME280;66387;53.440;10.390;2023-09-07T05:28:53;101724.50;;;17.82;100.00
77325;BME280;66387;53.440;10.390;2023-09-07T05:31:18;101723.59;;;17.85;99.97
77325;BME280;66387;53.440;10.390;2023-09-07T05:33:43;101729.66;;;17.87;100.00
77325;BME280;66387;53.440;10.390;2023-09-07T05:36:09;101725.16;;;17.92;99.87
77325;BME280;66387;53.440;10.390;2023-09-07T05:38:34;101727.81;;;17.90;99.66
77325;BME280;66387;53.440;10.390;2023-09-07T05:40:59;101725.34;;;17.84;99.58
77325;BME280;66387;53.440;10.390;2023-09-07T05:43:25;101730.34;;;17.93;99.95
77325;BME280;66387;53.440;10.390;2023-09-07T05:45:50;101731.13;;;17.97;99.54
77325;BME280;66387;53.440;10.390;2023-09-07T05:48:15;101737.22;;;17.99;99.47
77325;BME280;66387;53.440;10.390;2023-09-07T05:50:42;101739.78;;;18.00;99.36
77325;BME280;66387;53.440;10.390;2023-09-07T05:53:07;101738.91;;;18.01;99.64
77325;BME280;66387;53.440;10.390;2023-09-07T05:55:33;101740.78;;;17.96;99.98
77325;BME280;66387;53.440;10.390;2023-09-07T05:57:59;101744.97;;;18.03;99.84
77325;BME280;66387;53.440;10.390;2023-09-07T06:00:25;101741.44;;;18.04;99.38
77325;BME280;66387;53.440;10.390;2023-09-07T06:02:50;101749.19;;;18.10;99.08
77325;BME280;66387;53.440;10.390;2023-09-07T06:05:17;101750.78;;;18.16;98.66
77325;BME280;66387;53.440;10.390;2023-09-07T06:07:43;101746.38;;;18.17;98.73
77325;BME280;66387;53.440;10.390;2023-09-07T06:10:09;101745.41;;;18.21;98.24
77325;BME280;66387;53.440;10.390;2023-09-07T06:12:34;101751.38;;;18.26;97.93
77325;BME280;66387;53.440;10.390;2023-09-07T06:15:00;101753.09;;;18.28;98.19
77325;BME280;66387;53.440;10.390;2023-09-07T06:17:27;101752.09;;;18.32;97.60
77325;BME280;66387;53.440;10.390;2023-09-07T06:19:54;101751.97;;;18.37;97.25
77325;BME280;66387;53.440;10.390;2023-09-07T06:22:20;101755.34;;;18.42;97.18
77325;BME280;66387;53.440;10.390;2023-09-07T06:24:45;101761.22;;;18.51;96.98
77325;BME280;66387;53.440;10.390;2023-09-07T06:27:10;101752.25;;;18.58;96.59
77325;BME280;66387;53.440;10.390;2023-09-07T06:29:35;101752.88;;;18.68;96.12
77325;BME280;66387;53.440;10.390;2023-09-07T06:32:01;101766.84;;;18.70;96.11
77325;BME280;66387;53.440;10.390;2023-09-07T06:34:26;101763.22;;;18.74;96.03
77325;BME280;66387;53.440;10.390;2023-09-07T06:36:51;101765.94;;;18.71;96.10
77325;BME280;66387;53.440;10.390;2023-09-07T06:39:16;101772.66;;;18.81;95.63
77325;BME280;66387;53.440;10.390;2023-09-07T06:41:45;101763.81;;;18.84;95.10
77325;BME280;66387;53.440;10.390;2023-09-07T06:44:10;101762.88;;;18.86;95.04
77325;BME280;66387;53.440;10.390;2023-09-07T06:46:35;101762.59;;;18.95;94.74
77325;BME280;66387;53.440;10.390;2023-09-07T06:49:00;101762.59;;;18.95;94.72
77325;BME280;66387;53.440;10.390;2023-09-07T06:51:26;101759.72;;;19.04;94.57
77325;BME280;66387;53.440;10.390;2023-09-07T06:53:51;101774.50;;;19.08;94.15
77325;BME280;66387;53.440;10.390;2023-09-07T06:56:16;101766.41;;;19.15;93.78
77325;BME280;66387;53.440;10.390;2023-09-07T06:58:41;101768.75;;;19.24;94.11
77325;BME280;66387;53.440;10.390;2023-09-07T07:01:07;101765.88;;;19.31;93.03
77325;BME280;66387;53.440;10.390;2023-09-07T07:03:32;101771.91;;;19.35;93.44
77325;BME280;66387;53.440;10.390;2023-09-07T07:05:58;101770.72;;;19.46;92.36
77325;BME280;66387;53.440;10.390;2023-09-07T07:08:23;101770.38;;;19.57;91.78
77325;BME280;66387;53.440;10.390;2023-09-07T07:10:49;101780.47;;;19.71;90.85
77325;BME280;66387;53.440;10.390;2023-09-07T07:13:14;101777.53;;;19.80;90.15
77325;BME280;66387;53.440;10.390;2023-09-07T07:15:39;101777.19;;;19.90;90.12
77325;BME280;66387;53.440;10.390;2023-09-07T07:18:05;101783.94;;;19.99;89.44
77325;BME280;66387;53.440;10.390;2023-09-07T07:20:34;101782.66;;;20.11;89.27
77325;BME280;66387;53.440;10.390;2023-09-07T07:23:00;101783.41;;;20.14;88.83
77325;BME280;66387;53.440;10.390;2023-09-07T07:25:25;101794.50;;;20.24;87.17
77325;BME280;66387;53.440;10.390;2023-09-07T07:27:50;101785.69;;;20.25;86.54
77325;BME280;66387;53.440;10.390;2023-09-07T07:30:15;101789.63;;;20.38;86.05
77325;BME280;66387;53.440;10.390;2023-09-07T07:32:41;101787.63;;;20.44;85.82
77325;BME280;66387;53.440;10.390;2023-09-07T07:35:06;101783.66;;;20.58;86.06
77325;BME280;66387;53.440;10.390;2023-09-07T07:37:31;101790.16;;;20.72;85.98
77325;BME280;66387;53.440;10.390;2023-09-07T07:39:57;101786.03;;;20.88;85.53
77325;BME280;66387;53.440;10.390;2023-09-07T07:42:22;101795.25;;;21.01;84.48
77325;BME280;66387;53.440;10.390;2023-09-07T07:44:48;101785.34;;;21.07;82.81
77325;BME280;66387;53.440;10.390;2023-09-07T07:47:13;101788.59;;;21.15;82.64
77325;BME280;66387;53.440;10.390;2023-09-07T07:49:38;101792.75;;;21.20;82.92
77325;BME280;66387;53.440;10.390;2023-09-07T07:52:04;101795.56;;;21.39;83.09
77325;BME280;66387;53.440;10.390;2023-09-07T07:54:29;101790.72;;;21.50;80.99
77325;BME280;66387;53.440;10.390;2023-09-07T07:56:54;101798.28;;;21.59;79.51
77325;BME280;66387;53.440;10.390;2023-09-07T07:59:19;101785.56;;;21.69;79.59
77325;BME280;66387;53.440;10.390;2023-09-07T08:01:45;101790.03;;;21.88;80.21
77325;BME280;66387;53.440;10.390;2023-09-07T08:04:10;101796.69;;;21.98;77.31
77325;BME280;66387;53.440;10.390;2023-09-07T08:06:36;101790.94;;;22.09;76.73
77325;BME280;66387;53.440;10.390;2023-09-07T08:09:02;101798.28;;;22.23;75.39
77325;BME280;66387;53.440;10.390;2023-09-07T08:11:27;101793.34;;;22.35;75.75
77325;BME280;66387;53.440;10.390;2023-09-07T08:13:53;101799.47;;;22.56;75.31
77325;BME280;66387;53.440;10.390;2023-09-07T08:16:18;101789.03;;;22.73;74.88
77325;BME280;66387;53.440;10.390;2023-09-07T08:18:43;101785.22;;;22.80;74.17
77325;BME280;66387;53.440;10.390;2023-09-07T08:21:09;101790.72;;;22.94;72.39
77325;BME280;66387;53.440;10.390;2023-09-07T08:23:34;101788.88;;;23.15;73.66
77325;BME280;66387;53.440;10.390;2023-09-07T08:25:59;101782.28;;;23.24;73.18
77325;BME280;66387;53.440;10.390;2023-09-07T08:28:25;101784.84;;;23.25;72.56
77325;BME280;66387;53.440;10.390;2023-09-07T08:30:51;101784.19;;;23.39;72.84
77325;BME280;66387;53.440;10.390;2023-09-07T08:33:19;101793.00;;;23.58;71.75
77325;BME280;66387;53.440;10.390;2023-09-07T08:35:44;101793.91;;;23.76;70.28
77325;BME280;66387;53.440;10.390;2023-09-07T08:38:10;101787.94;;;23.89;68.96
77325;BME280;66387;53.440;10.390;2023-09-07T08:40:35;101791.50;;;23.88;66.63
77325;BME280;66387;53.440;10.390;2023-09-07T08:43:04;101785.50;;;24.02;68.15
77325;BME280;66387;53.440;10.390;2023-09-07T08:45:32;101791.00;;;24.16;68.15
77325;BME280;66387;53.440;10.390;2023-09-07T08:48:01;101788.38;;;24.33;66.08
77325;BME280;66387;53.440;10.390;2023-09-07T08:50:27;101783.50;;;24.41;65.27
77325;BME280;66387;53.440;10.390;2023-09-07T08:52:53;101783.63;;;24.56;66.43
77325;BME280;66387;53.440;10.390;2023-09-07T08:55:20;101777.78;;;24.66;65.34
77325;BME280;66387;53.440;10.390;2023-09-07T08:57:46;101779.16;;;24.73;65.30
77325;BME280;66387;53.440;10.390;2023-09-07T09:00:12;101791.38;;;24.93;65.13
77325;BME280;66387;53.440;10.390;2023-09-07T09:02:42;101789.88;;;25.05;63.24
77325;BME280;66387;53.440;10.390;2023-09-07T09:05:09;101782.16;;;25.16;62.28
77325;BME280;66387;53.440;10.390;2023-09-07T09:07:34;101784.16;;;25.28;60.84
77325;BME280;66387;53.440;10.390;2023-09-07T09:10:07;101779.91;;;25.39;59.51
77325;BME280;66387;53.440;10.390;2023-09-07T09:12:33;101778.56;;;25.48;59.17
77325;BME280;66387;53.440;10.390;2023-09-07T09:15:00;101772.66;;;25.59;58.71
77325;BME280;66387;53.440;10.390;2023-09-07T09:17:28;101770.91;;;25.73;57.27
77325;BME280;66387;53.440;10.390;2023-09-07T09:19:54;101773.53;;;25.89;56.90
77325;BME280;66387;53.440;10.390;2023-09-07T09:22:19;101780.72;;;26.03;57.43
77325;BME280;66387;53.440;10.390;2023-09-07T09:24:47;101776.03;;;25.92;56.54
77325;BME280;66387;53.440;10.390;2023-09-07T09:27:12;101775.88;;;26.09;57.51
77325;BME280;66387;53.440;10.390;2023-09-07T09:29:38;101771.84;;;26.18;55.60
77325;BME280;66387;53.440;10.390;2023-09-07T09:32:04;101771.88;;;26.32;57.11
77325;BME280;66387;53.440;10.390;2023-09-07T09:34:37;101774.94;;;26.54;57.55
77325;BME280;66387;53.440;10.390;2023-09-07T09:37:03;101778.88;;;26.77;56.88
77325;BME280;66387;53.440;10.390;2023-09-07T09:39:29;101779.34;;;26.98;55.67
77325;BME280;66387;53.440;10.390;2023-09-07T09:41:55;101778.50;;;26.97;54.52
77325;BME280;66387;53.440;10.390;2023-09-07T09:44:22;101771.06;;;27.02;52.40
77325;BME280;66387;53.440;10.390;2023-09-07T09:46:52;101777.44;;;27.14;52.39
77325;BME280;66387;53.440;10.390;2023-09-07T09:49:20;101771.50;;;27.23;51.08
77325;BME280;66387;53.440;10.390;2023-09-07T09:51:48;101774.53;;;27.45;51.52
77325;BME280;66387;53.440;10.390;2023-09-07T09:54:16;101772.38;;;27.64;51.25
77325;BME280;66387;53.440;10.390;2023-09-07T09:56:41;101780.41;;;27.77;50.94
77325;BME280;66387;53.440;10.390;2023-09-07T09:59:06;101772.38;;;27.77;49.02
77325;BME280;66387;53.440;10.390;2023-09-07T10:01:38;101768.63;;;28.06;48.17
77325;BME280;66387;53.440;10.390;2023-09-07T10:04:08;101766.97;;;28.18;47.65
77325;BME280;66387;53.440;10.390;2023-09-07T10:06:34;101770.50;;;27.92;47.47
77325;BME280;66387;53.440;10.390;2023-09-07T10:09:05;101763.47;;;28.30;48.65
77325;BME280;66387;53.440;10.390;2023-09-07T10:11:38;101762.72;;;28.41;48.01
77325;BME280;66387;53.440;10.390;2023-09-07T10:14:06;101760.88;;;28.66;47.17
77325;BME280;66387;53.440;10.390;2023-09-07T10:16:48;101757.91;;;28.84;46.04
77325;BME280;66387;53.440;10.390;2023-09-07T10:19:22;101755.94;;;28.60;46.08
77325;BME280;66387;53.440;10.390;2023-09-07T10:21:48;101750.38;;;29.01;45.55
77325;BME280;66387;53.440;10.390;2023-09-07T10:24:27;101750.03;;;29.06;45.45
77325;BME280;66387;53.440;10.390;2023-09-07T10:27:06;101751.94;;;29.04;45.33
77325;BME280;66387;53.440;10.390;2023-09-07T10:29:52;101739.44;;;29.04;44.64
77325;BME280;66387;53.440;10.390;2023-09-07T10:32:18;101741.47;;;29.01;44.23
77325;BME280;66387;53.440;10.390;2023-09-07T10:34:43;101749.41;;;29.02;44.22
77325;BME280;66387;53.440;10.390;2023-09-07T10:37:15;101743.75;;;29.43;44.38
77325;BME280;66387;53.440;10.390;2023-09-07T10:39:41;101734.53;;;29.58;44.69
77325;BME280;66387;53.440;10.390;2023-09-07T10:42:25;101730.72;;;29.74;43.66
77325;BME280;66387;53.440;10.390;2023-09-07T10:44:51;101739.72;;;29.73;43.31
77325;BME280;66387;53.440;10.390;2023-09-07T10:47:17;101729.78;;;29.51;44.20
77325;BME280;66387;53.440;10.390;2023-09-07T10:49:42;101729.59;;;29.89;43.69
77325;BME280;66387;53.440;10.390;2023-09-07T10:52:08;101735.47;;;30.05;42.73
77325;BME280;66387;53.440;10.390;2023-09-07T10:54:33;101725.50;;;30.07;42.68
77325;BME280;66387;53.440;10.390;2023-09-07T10:57:07;101721.53;;;30.46;42.32
77325;BME280;66387;53.440;10.390;2023-09-07T10:59:32;101706.81;;;30.62;41.91
77325;BME280;66387;53.440;10.390;2023-09-07T11:02:04;101719.00;;;30.78;40.85
77325;BME280;66387;53.440;10.390;2023-09-07T11:04:29;101702.41;;;30.84;40.24
77325;BME280;66387;53.440;10.390;2023-09-07T11:06:54;101710.69;;;31.03;40.38
77325;BME280;66387;53.440;10.390;2023-09-07T11:09:19;101718.00;;;31.01;39.87
77325;BME280;66387;53.440;10.390;2023-09-07T11:11:46;101702.59;;;31.25;38.66
77325;BME280;66387;53.440;10.390;2023-09-07T11:14:11;101705.09;;;31.38;38.94
77325;BME280;66387;53.440;10.390;2023-09-07T11:16:37;101711.09;;;31.30;36.00
77325;BME280;66387;53.440;10.390;2023-09-07T11:19:06;101709.97;;;31.01;36.84
77325;BME280;66387;53.440;10.390;2023-09-07T11:21:32;101706.44;;;30.89;36.93
77325;BME280;66387;53.440;10.390;2023-09-07T11:23:59;101708.47;;;30.97;36.97
77325;BME280;66387;53.440;10.390;2023-09-07T11:26:25;101696.31;;;31.04;37.29
77325;BME280;66387;53.440;10.390;2023-09-07T11:28:50;101699.78;;;31.27;36.68
77325;BME280;66387;53.440;10.390;2023-09-07T11:31:18;101695.97;;;31.40;36.48
77325;BME280;66387;53.440;10.390;2023-09-07T11:33:44;101704.06;;;31.82;37.20
77325;BME280;66387;53.440;10.390;2023-09-07T11:36:09;101695.03;;;31.62;36.37
77325;BME280;66387;53.440;10.390;2023-09-07T11:38:36;101698.97;;;31.79;36.05
77325;BME280;66387;53.440;10.390;2023-09-07T11:41:02;101698.78;;;31.91;35.53
77325;BME280;66387;53.440;10.390;2023-09-07T11:43:28;101690.91;;;31.99;35.08
77325;BME280;66387;53.440;10.390;2023-09-07T11:45:53;101693.53;;;31.69;35.49
77325;BME280;66387;53.440;10.390;2023-09-07T11:48:19;101692.50;;;32.02;35.61
77325;BME280;66387;53.440;10.390;2023-09-07T11:50:44;101689.06;;;32.00;35.53
77325;BME280;66387;53.440;10.390;2023-09-07T11:53:09;101696.31;;;32.20;35.60
77325;BME280;66387;53.440;10.390;2023-09-07T11:55:35;101692.13;;;32.37;35.07
77325;BME280;66387;53.440;10.390;2023-09-07T11:58:04;101686.72;;;32.06;34.95
77325;BME280;66387;53.440;10.390;2023-09-07T12:00:32;101690.00;;;31.69;36.33
77325;BME280;66387;53.440;10.390;2023-09-07T12:02:57;101683.25;;;31.42;36.33
77325;BME280;66387;53.440;10.390;2023-09-07T12:05:23;101684.84;;;31.77;35.96
77325;BME280;66387;53.440;10.390;2023-09-07T12:07:49;101677.53;;;31.88;35.54
77325;BME280;66387;53.440;10.390;2023-09-07T12:10:14;101682.53;;;31.93;36.16
77325;BME280;66387;53.440;10.390;2023-09-07T12:12:40;101669.75;;;32.27;34.69
77325;BME280;66387;53.440;10.390;2023-09-07T12:15:06;101673.44;;;32.35;34.44
77325;BME280;66387;53.440;10.390;2023-09-07T12:17:33;101666.34;;;32.04;34.52
77325;BME280;66387;53.440;10.390;2023-09-07T12:19:59;101681.16;;;32.49;34.40
77325;BME280;66387;53.440;10.390;2023-09-07T12:22:25;101668.69;;;32.48;34.23
77325;BME280;66387;53.440;10.390;2023-09-07T12:24:50;101660.81;;;32.56;35.82
77325;BME280;66387;53.440;10.390;2023-09-07T12:27:15;101661.16;;;32.73;33.97
77325;BME280;66387;53.440;10.390;2023-09-07T12:29:41;101649.00;;;32.78;33.50
77325;BME280;66387;53.440;10.390;2023-09-07T12:32:06;101658.09;;;32.96;33.59
77325;BME280;66387;53.440;10.390;2023-09-07T12:34:32;101651.72;;;32.57;32.71